createdAt,value
2022-08-16T00:00:20.170Z,98808.47
2022-08-16T00:00:38.421Z,98800.44
2022-08-16T00:00:52.217Z,98807.09
2022-08-16T00:01:04.341Z,98804.19
2022-08-16T00:01:20.367Z,98803.78
2022-08-16T00:01:34.170Z,98801.00
2022-08-16T00:01:48.701Z,98799.31
2022-08-16T00:02:01.747Z,98797.38
2022-08-16T00:02:25.114Z,98802.94
2022-08-16T00:02:39.407Z,98799.88
2022-08-16T00:02:54.331Z,98798.47
2022-08-16T00:03:07.501Z,98803.75
2022-08-16T00:03:25.615Z,98801.94
2022-08-16T00:03:37.953Z,98800.16
2022-08-16T00:03:50.051Z,98807.22
2022-08-16T00:04:02.085Z,98797.91
2022-08-16T00:04:17.994Z,98799.44
2022-08-16T00:04:30.172Z,98801.97
2022-08-16T00:04:42.211Z,98797.50
2022-08-16T00:04:54.583Z,98801.81
2022-08-16T00:05:13.759Z,98796.94
2022-08-16T00:05:27.594Z,98803.91
2022-08-16T00:05:48.602Z,98808.19
2022-08-16T00:06:00.966Z,98805.56
2022-08-16T00:06:15.425Z,98793.75
2022-08-16T00:06:29.280Z,98802.38
2022-08-16T00:06:41.548Z,98800.44
2022-08-16T00:06:56.258Z,98797.78
2022-08-16T00:07:08.218Z,98801.13
2022-08-16T00:07:21.955Z,98800.44
2022-08-16T00:07:33.991Z,98802.09
2022-08-16T00:07:47.143Z,98803.75
2022-08-16T00:07:59.629Z,98802.09
2022-08-16T00:08:36.650Z,98802.38
2022-08-16T00:08:50.008Z,98797.63
2022-08-16T00:09:05.234Z,98802.78
2022-08-16T00:09:17.581Z,98807.25
2022-08-16T00:09:29.590Z,98802.66
2022-08-16T00:09:41.833Z,98802.66
2022-08-16T00:09:54.102Z,98801.09
2022-08-16T00:10:09.426Z,98807.09
2022-08-16T00:10:33.911Z,98806.38
2022-08-16T00:10:46.877Z,98811.81
2022-08-16T00:10:58.807Z,98809.88
2022-08-16T00:11:15.270Z,98802.91
2022-08-16T00:11:28.004Z,98810.84
2022-08-16T00:11:42.032Z,98803.63
2022-08-16T00:11:55.511Z,98805.56
2022-08-16T00:12:07.670Z,98818.50
2022-08-16T00:12:19.634Z,98807.66
2022-08-16T00:12:33.555Z,98808.78
2022-08-16T00:12:47.049Z,98810.59
2022-08-16T00:13:06.718Z,98806.00
2022-08-16T00:13:19.311Z,98805.00
2022-08-16T00:13:33.694Z,98807.78
2022-08-16T00:13:55.496Z,98814.06
2022-08-16T00:14:12.715Z,98808.91
2022-08-16T00:14:30.390Z,98811.53
2022-08-16T00:14:42.969Z,98809.59
2022-08-16T00:14:57.307Z,98814.06
2022-08-16T00:15:16.912Z,98811.28
2022-08-16T00:15:52.026Z,98812.53
2022-08-16T00:17:01.776Z,98811.28
2022-08-16T00:17:05.595Z,98812.38
2022-08-16T00:17:18.299Z,98811.28
2022-08-16T00:17:55.904Z,98812.69
2022-08-16T00:18:04.748Z,98808.91
2022-08-16T00:18:22.339Z,98798.22
2022-08-16T00:18:42.103Z,98800.88
2022-08-16T00:18:54.044Z,98801.56
2022-08-16T00:19:06.431Z,98806.72
2022-08-16T00:19:22.648Z,98806.56
2022-08-16T00:19:41.063Z,98802.94
2022-08-16T00:19:55.046Z,98804.59
2022-08-16T00:20:12.333Z,98805.59
2022-08-16T00:20:26.024Z,98803.78
2022-08-16T00:20:40.691Z,98808.94
2022-08-16T00:20:53.074Z,98805.47
2022-08-16T00:21:05.228Z,98805.19
2022-08-16T00:21:18.076Z,98812.97
2022-08-16T00:21:30.466Z,98806.69
2022-08-16T00:21:44.317Z,98806.69
2022-08-16T00:22:03.185Z,98803.78
2022-08-16T00:22:20.724Z,98807.13
2022-08-16T00:22:39.225Z,98810.47
2022-08-16T00:22:54.981Z,98806.84
2022-08-16T00:23:07.662Z,98803.50
2022-08-16T00:23:24.463Z,98806.28
2022-08-16T00:23:46.702Z,98807.72
2022-08-16T00:23:59.273Z,98804.91
2022-08-16T00:24:32.285Z,98805.75
2022-08-16T00:24:46.729Z,98804.06
2022-08-16T00:24:58.932Z,98802.13
2022-08-16T00:25:13.993Z,98804.75
2022-08-16T00:26:34.592Z,98812.56
2022-08-16T00:26:36.229Z,98804.38
2022-08-16T00:26:36.739Z,98805.75
2022-08-16T00:26:49.570Z,98805.47
2022-08-16T00:27:04.195Z,98805.47
2022-08-16T00:27:17.518Z,98806.28
2022-08-16T00:27:30.854Z,98809.78
2022-08-16T00:27:43.299Z,98805.59
2022-08-16T00:28:00.396Z,98804.91
2022-08-16T00:28:13.766Z,98803.13
2022-08-16T00:28:28.623Z,98805.75
2022-08-16T00:28:41.887Z,98810.47
2022-08-16T00:28:58.123Z,98811.31
2022-08-16T00:29:15.763Z,98806.03
2022-08-16T00:29:29.934Z,98809.34
2022-08-16T00:29:42.367Z,98814.38
2022-08-16T00:30:08.989Z,98804.75
2022-08-16T00:30:29.017Z,98810.63
2022-08-16T00:30:41.404Z,98804.34
2022-08-16T00:30:53.829Z,98803.50
2022-08-16T00:31:05.866Z,98801.84
2022-08-16T00:31:24.277Z,98805.47
2022-08-16T00:31:59.623Z,98805.47
2022-08-16T00:32:18.137Z,98804.91
2022-08-16T00:32:32.733Z,98798.78
2022-08-16T00:32:48.246Z,98801.84
2022-08-16T00:33:02.215Z,98800.59
2022-08-16T00:33:14.397Z,98805.75
2022-08-16T00:33:26.370Z,98805.31
2022-08-16T00:33:38.340Z,98804.06
2022-08-16T00:33:50.471Z,98798.78
2022-08-16T00:34:04.496Z,98795.31
2022-08-16T00:34:18.427Z,98802.41
2022-08-16T00:34:52.452Z,98802.25
2022-08-16T00:35:03.807Z,98795.72
2022-08-16T00:35:29.313Z,98799.09
2022-08-16T00:35:46.859Z,98804.06
2022-08-16T00:36:01.846Z,98798.78
2022-08-16T00:36:13.872Z,98796.84
2022-08-16T00:36:25.890Z,98803.94
2022-08-16T00:36:37.833Z,98801.28
2022-08-16T00:36:59.355Z,98798.53
2022-08-16T00:37:18.328Z,98802.69
2022-08-16T00:37:58.820Z,98800.47
2022-08-16T00:38:41.349Z,98810.75
2022-08-16T00:38:43.259Z,98802.56
2022-08-16T00:38:56.229Z,98804.63
2022-08-16T00:39:08.434Z,98798.34
2022-08-16T00:39:27.637Z,98801.72
2022-08-16T00:39:43.010Z,98806.03
2022-08-16T00:39:57.997Z,98807.72
2022-08-16T00:40:33.411Z,98808.53
2022-08-16T00:40:53.915Z,98809.09
2022-08-16T00:41:07.284Z,98805.47
2022-08-16T00:41:21.088Z,98808.94
2022-08-16T00:41:34.455Z,98808.09
2022-08-16T00:41:50.511Z,98811.44
2022-08-16T00:42:02.775Z,98814.09
2022-08-16T00:42:30.144Z,98818.53
2022-08-16T00:42:43.601Z,98805.47
2022-08-16T00:42:58.267Z,98824.66
2022-08-16T00:43:19.390Z,98816.88
2022-08-16T00:43:43.520Z,98811.56
2022-08-16T00:43:55.721Z,98814.22
2022-08-16T00:44:11.100Z,98817.97
2022-08-16T00:44:23.493Z,98808.25
2022-08-16T00:44:54.505Z,98816.03
2022-08-16T00:45:36.716Z,98817.72
2022-08-16T00:46:35.509Z,98807.16
2022-08-16T00:47:06.043Z,98814.09
2022-08-16T00:47:19.734Z,98813.13
2022-08-16T00:47:35.317Z,98811.19
2022-08-16T00:47:49.851Z,98804.06
2022-08-16T00:48:30.495Z,98809.97
2022-08-16T00:48:43.989Z,98813.56
2022-08-16T00:48:57.593Z,98814.56
2022-08-16T00:49:19.574Z,98804.91
2022-08-16T00:49:39.461Z,98806.63
2022-08-16T00:49:57.060Z,98804.81
2022-08-16T00:50:11.768Z,98806.44
2022-08-16T00:50:35.920Z,98804.66
2022-08-16T00:50:48.580Z,98806.31
2022-08-16T00:51:08.022Z,98806.31
2022-08-16T00:51:23.619Z,98803.81
2022-08-16T00:51:36.079Z,98799.38
2022-08-16T00:51:55.101Z,98801.03
2022-08-16T00:52:29.511Z,98808.00
2022-08-16T00:52:50.298Z,98803.69
2022-08-16T00:53:11.453Z,98804.66
2022-08-16T00:53:23.699Z,98807.16
2022-08-16T00:53:35.790Z,98807.28
2022-08-16T00:53:49.503Z,98809.34
2022-08-16T00:54:03.160Z,98809.34
2022-08-16T00:54:16.844Z,98804.06
2022-08-16T00:54:33.823Z,98813.94
2022-08-16T00:54:46.082Z,98806.03
2022-08-16T00:55:00.461Z,98806.16
2022-08-16T00:55:12.751Z,98801.72
2022-08-16T00:55:28.206Z,98801.84
2022-08-16T00:55:54.209Z,98804.63
2022-08-16T00:56:11.292Z,98801.97
2022-08-16T00:56:56.570Z,98803.94
2022-08-16T00:57:11.567Z,98806.56
2022-08-16T00:57:23.921Z,98801.28
2022-08-16T00:57:58.926Z,98804.88
2022-08-16T00:58:12.910Z,98807.41
2022-08-16T00:58:34.581Z,98808.53
2022-08-16T00:58:48.358Z,98812.81
2022-08-16T00:59:02.234Z,98811.88
2022-08-16T00:59:16.930Z,98806.72
2022-08-16T00:59:34.301Z,98805.19
2022-08-16T00:59:58.681Z,98805.19
2022-08-16T01:00:11.900Z,98807.13
2022-08-16T01:00:33.489Z,98810.72
2022-08-16T01:00:54.379Z,98809.09
2022-08-16T01:01:08.782Z,98809.09
2022-08-16T01:01:23.152Z,98810.19
2022-08-16T01:01:36.098Z,98808.25
2022-08-16T01:01:48.089Z,98807.41
2022-08-16T01:02:30.720Z,98805.75
2022-08-16T01:02:34.026Z,98809.63
2022-08-16T01:02:48.731Z,98811.28
2022-08-16T01:03:08.138Z,98802.66
2022-08-16T01:03:30.382Z,98805.47
2022-08-16T01:03:47.504Z,98806.28
2022-08-16T01:04:01.763Z,98807.13
2022-08-16T01:04:29.245Z,98808.81
2022-08-16T01:04:42.882Z,98807.13
2022-08-16T01:05:14.841Z,98806.28
2022-08-16T01:05:28.758Z,98809.06
2022-08-16T01:05:42.208Z,98811.84
2022-08-16T01:05:55.183Z,98816.16
2022-08-16T01:06:40.126Z,98806.84
2022-08-16T01:06:49.231Z,98819.63
2022-08-16T01:07:11.539Z,98816.97
2022-08-16T01:07:29.850Z,98819.63
2022-08-16T01:08:35.455Z,98816.97
2022-08-16T01:08:37.000Z,98814.63
2022-08-16T01:08:52.446Z,98818.22
2022-08-16T01:09:06.761Z,98821.69
2022-08-16T01:09:20.780Z,98818.50
2022-08-16T01:09:42.979Z,98817.53
2022-08-16T01:09:55.394Z,98816.81
2022-08-16T01:10:15.820Z,98817.94
2022-08-16T01:10:33.589Z,98819.06
2022-08-16T01:10:46.349Z,98815.44
2022-08-16T01:11:00.065Z,98819.06
2022-08-16T01:11:14.668Z,98826.00
2022-08-16T01:11:29.425Z,98822.41
2022-08-16T01:11:51.750Z,98818.75
2022-08-16T01:12:10.660Z,98820.44
2022-08-16T01:12:26.680Z,98822.94
2022-08-16T01:12:38.852Z,98824.63
2022-08-16T01:12:51.398Z,98823.78
2022-08-16T01:13:12.400Z,98827.13
2022-08-16T01:13:30.966Z,98817.38
2022-08-16T01:13:44.303Z,98821.84
2022-08-16T01:14:04.510Z,98823.78
2022-08-16T01:14:29.847Z,98823.78
2022-08-16T01:14:53.288Z,98826.28
2022-08-16T01:15:06.070Z,98827.38
2022-08-16T01:15:20.415Z,98827.38
2022-08-16T01:15:43.091Z,98824.75
2022-08-16T01:16:05.848Z,98825.72
2022-08-16T01:16:26.659Z,98820.44
2022-08-16T01:16:42.802Z,98823.78
2022-08-16T01:16:56.850Z,98826.56
2022-08-16T01:17:09.826Z,98817.81
2022-08-16T01:17:24.348Z,98821.53
2022-08-16T01:17:37.537Z,98822.66
2022-08-16T01:17:55.778Z,98823.47
2022-08-16T01:18:39.918Z,98823.47
2022-08-16T01:19:09.701Z,98828.22
2022-08-16T01:19:32.650Z,98825.00
2022-08-16T01:19:52.392Z,98822.38
2022-08-16T01:20:23.813Z,98827.53
2022-08-16T01:20:43.599Z,98824.31
2022-08-16T01:21:12.204Z,98827.78
2022-08-16T01:21:47.894Z,98821.53
2022-08-16T01:22:48.193Z,98821.53
2022-08-16T01:22:52.469Z,98828.72
2022-08-16T01:23:58.628Z,98827.06
2022-08-16T01:24:44.471Z,98821.78
2022-08-16T01:24:57.655Z,98825.69
2022-08-16T01:25:24.059Z,98823.16
2022-08-16T01:26:00.303Z,98832.06
2022-08-16T01:26:34.567Z,98823.44
2022-08-16T01:26:50.175Z,98820.94
2022-08-16T01:27:34.738Z,98824.28
2022-08-16T01:27:54.588Z,98830.50
2022-08-16T01:28:20.128Z,98828.03
2022-08-16T01:28:35.793Z,98831.50
2022-08-16T01:28:51.520Z,98824.53
2022-08-16T01:29:09.915Z,98826.22
2022-08-16T01:29:56.636Z,98833.53
2022-08-16T01:30:19.406Z,98832.00
2022-08-16T01:30:36.756Z,98833.94
2022-08-16T01:30:58.281Z,98823.63
2022-08-16T01:31:11.363Z,98827.25
2022-08-16T01:31:30.983Z,98830.16
2022-08-16T01:31:43.506Z,98833.78
2022-08-16T01:31:55.576Z,98826.69
2022-08-16T01:32:09.854Z,98829.31
2022-08-16T01:32:33.554Z,98830.16
2022-08-16T01:32:47.061Z,98827.50
2022-08-16T01:33:15.724Z,98825.84
2022-08-16T01:33:33.354Z,98826.94
2022-08-16T01:33:49.736Z,98825.28
2022-08-16T01:34:02.494Z,98829.72
2022-08-16T01:34:24.999Z,98828.31
2022-08-16T01:34:47.138Z,98824.97
2022-08-16T01:34:59.666Z,98826.91
2022-08-16T01:35:18.149Z,98828.56
2022-08-16T01:35:39.363Z,98823.28
2022-08-16T01:35:54.091Z,98824.13
2022-08-16T01:36:11.914Z,98824.97
2022-08-16T01:36:26.485Z,98826.91
2022-08-16T01:36:38.760Z,98831.50
2022-08-16T01:36:58.593Z,98827.44
2022-08-16T01:37:13.174Z,98819.53
2022-08-16T01:37:35.731Z,98823.13
2022-08-16T01:37:54.676Z,98832.72
2022-08-16T01:38:19.596Z,98824.81
2022-08-16T01:38:38.001Z,98833.44
2022-08-16T01:38:56.936Z,98823.00
2022-08-16T01:39:15.323Z,98829.09
2022-08-16T01:39:27.341Z,98824.66
2022-08-16T01:39:39.910Z,98828.84
2022-08-16T01:39:55.007Z,98825.22
2022-08-16T01:40:07.832Z,98825.22
2022-08-16T01:40:27.250Z,98831.22
2022-08-16T01:40:39.218Z,98828.56
2022-08-16T01:40:56.780Z,98830.25
2022-08-16T01:41:30.491Z,98833.72
2022-08-16T01:41:44.491Z,98830.25
2022-08-16T01:41:57.407Z,98832.91
2022-08-16T01:42:12.967Z,98826.06
2022-08-16T01:42:25.382Z,98829.81
2022-08-16T01:42:37.530Z,98823.81
2022-08-16T01:42:55.874Z,98828.28
2022-08-16T01:43:08.234Z,98825.75
2022-08-16T01:43:23.606Z,98827.44
2022-08-16T01:43:38.297Z,98825.75
2022-08-16T01:43:53.947Z,98830.91
2022-08-16T01:44:06.701Z,98827.44
2022-08-16T01:44:18.820Z,98829.38
2022-08-16T01:44:37.527Z,98833.69
2022-08-16T01:44:50.242Z,98831.03
2022-08-16T01:45:05.542Z,98832.03
2022-08-16T01:45:19.646Z,98826.59
2022-08-16T01:45:40.777Z,98826.59
2022-08-16T01:45:57.706Z,98828.28
2022-08-16T01:46:44.090Z,98829.09
2022-08-16T01:46:57.505Z,98828.28
2022-08-16T01:47:10.473Z,98824.09
2022-08-16T01:47:23.579Z,98825.06
2022-08-16T01:47:38.835Z,98825.75
2022-08-16T01:48:01.981Z,98822.16
2022-08-16T01:48:33.002Z,98832.44
2022-08-16T01:48:48.345Z,98822.16
2022-08-16T01:49:06.626Z,98830.09
2022-08-16T01:49:43.086Z,98825.75
2022-08-16T01:50:41.939Z,98831.41
2022-08-16T01:50:42.631Z,98825.81
2022-08-16T01:51:09.281Z,98825.16
2022-08-16T01:51:29.952Z,98826.59
2022-08-16T01:51:44.114Z,98830.88
2022-08-16T01:52:28.271Z,98825.97
2022-08-16T01:52:46.552Z,98832.69
2022-08-16T01:52:58.726Z,98829.19
2022-08-16T01:53:11.036Z,98831.28
2022-08-16T01:53:23.941Z,98832.31
2022-08-16T01:53:36.313Z,98833.75
2022-08-16T01:53:55.372Z,98825.09
2022-08-16T01:54:08.134Z,98834.97
2022-08-16T01:54:31.143Z,98831.00
2022-08-16T01:54:43.461Z,98822.59
2022-08-16T01:54:57.702Z,98822.47
2022-08-16T01:55:10.455Z,98830.00
2022-08-16T01:55:24.302Z,98825.59
2022-08-16T01:55:36.386Z,98828.06
2022-08-16T01:55:54.098Z,98815.34
2022-08-16T01:56:06.427Z,98825.38
2022-08-16T01:56:23.474Z,98825.16
2022-08-16T01:56:37.683Z,98821.31
2022-08-16T01:56:49.630Z,98821.31
2022-08-16T01:57:03.805Z,98825.94
2022-08-16T01:57:16.482Z,98829.84
2022-08-16T01:57:35.705Z,98833.25
2022-08-16T01:57:53.557Z,98829.69
2022-08-16T01:58:10.856Z,98826.81
2022-08-16T01:58:25.532Z,98821.97
2022-08-16T01:58:37.612Z,98822.56
2022-08-16T01:59:02.103Z,98827.03
2022-08-16T01:59:16.981Z,98822.06
2022-08-16T01:59:33.557Z,98828.06
2022-08-16T01:59:46.078Z,98828.44
2022-08-16T01:59:59.478Z,98821.88
2022-08-16T02:00:19.441Z,98826.94
2022-08-16T02:00:31.812Z,98822.81
2022-08-16T02:00:44.859Z,98832.63
2022-08-16T02:00:59.039Z,98825.34
2022-08-16T02:01:11.350Z,98827.03
2022-08-16T02:01:23.585Z,98826.75
2022-08-16T02:01:38.605Z,98823.72
2022-08-16T02:01:59.617Z,98819.06
2022-08-16T02:02:27.473Z,98823.38
2022-08-16T02:02:42.605Z,98818.81
2022-08-16T02:02:54.731Z,98820.47
2022-08-16T02:03:07.466Z,98819.41
2022-08-16T02:03:26.682Z,98814.69
2022-08-16T02:03:40.055Z,98825.22
2022-08-16T02:03:52.095Z,98818.03
2022-08-16T02:04:10.987Z,98818.53
2022-08-16T02:04:49.709Z,98814.78
2022-08-16T02:05:00.034Z,98817.13
2022-08-16T02:05:13.703Z,98816.03
2022-08-16T02:05:25.924Z,98821.06
2022-08-16T02:05:46.653Z,98815.28
2022-08-16T02:06:04.286Z,98813.97
2022-08-16T02:06:33.775Z,98818.97
2022-08-16T02:06:47.183Z,98816.81
2022-08-16T02:07:00.484Z,98819.31
2022-08-16T02:07:13.217Z,98814.75
2022-08-16T02:07:25.516Z,98817.41
2022-08-16T02:07:39.024Z,98817.13
2022-08-16T02:07:57.031Z,98818.53
2022-08-16T02:08:09.567Z,98813.28
2022-08-16T02:08:42.060Z,98818.53
2022-08-16T02:08:55.075Z,98815.91
2022-08-16T02:09:11.759Z,98818.53
2022-08-16T02:09:25.481Z,98819.53
2022-08-16T02:09:57.355Z,98821.88
2022-08-16T02:10:11.241Z,98817.47
2022-08-16T02:10:23.983Z,98825.50
2022-08-16T02:10:38.331Z,98819.25
2022-08-16T02:10:54.555Z,98820.13
2022-08-16T02:11:08.640Z,98821.66
2022-08-16T02:11:22.527Z,98821.38
2022-08-16T02:11:47.809Z,98824.00
2022-08-16T02:12:40.115Z,98817.53
2022-08-16T02:12:52.589Z,98819.22
2022-08-16T02:13:08.038Z,98820.03
2022-08-16T02:13:21.531Z,98819.22
2022-08-16T02:13:41.635Z,98817.28
2022-08-16T02:13:55.237Z,98813.66
2022-08-16T02:14:07.257Z,98819.09
2022-08-16T02:14:30.956Z,98818.22
2022-08-16T02:14:43.323Z,98815.59
2022-08-16T02:14:56.119Z,98821.72
2022-08-16T02:15:09.761Z,98816.44
2022-08-16T02:15:25.931Z,98820.88
2022-08-16T02:15:43.041Z,98820.03
2022-08-16T02:15:55.970Z,98830.47
2022-08-16T02:16:18.758Z,98815.59
2022-08-16T02:16:31.041Z,98818.94
2022-08-16T02:16:44.586Z,98824.22
2022-08-16T02:17:01.559Z,98819.09
2022-08-16T02:17:14.571Z,98820.88
2022-08-16T02:17:28.411Z,98818.22
2022-08-16T02:17:40.684Z,98818.94
2022-08-16T02:17:57.379Z,98818.00
2022-08-16T02:18:12.809Z,98815.34
2022-08-16T02:18:24.927Z,98821.47
2022-08-16T02:18:38.147Z,98817.00
2022-08-16T02:18:53.119Z,98822.03
2022-08-16T02:19:05.350Z,98822.88
2022-08-16T02:19:59.561Z,98821.22
2022-08-16T02:20:04.059Z,98820.13
2022-08-16T02:20:26.395Z,98825.28
2022-08-16T02:20:42.550Z,98816.50
2022-08-16T02:20:57.322Z,98818.44
2022-08-16T02:21:13.326Z,98813.31
2022-08-16T02:21:31.623Z,98820.94
2022-08-16T02:22:08.688Z,98821.78
2022-08-16T02:22:34.324Z,98813.16
2022-08-16T02:22:49.106Z,98819.41
2022-08-16T02:23:01.570Z,98815.66
2022-08-16T02:23:14.249Z,98813.88
2022-08-16T02:23:29.648Z,98818.19
2022-08-16T02:23:41.960Z,98821.78
2022-08-16T02:23:55.829Z,98819.00
2022-08-16T02:24:32.442Z,98818.19
2022-08-16T02:24:42.248Z,98820.94
2022-08-16T02:24:57.957Z,98820.34
2022-08-16T02:25:14.748Z,98824.69
2022-08-16T02:25:50.914Z,98816.66
2022-08-16T02:26:00.250Z,98819.41
2022-08-16T02:26:16.989Z,98819.41
2022-08-16T02:26:34.379Z,98825.91
2022-08-16T02:26:46.463Z,98827.81
2022-08-16T02:27:02.180Z,98819.66
2022-08-16T02:27:17.723Z,98830.91
2022-08-16T02:27:31.012Z,98821.22
2022-08-16T02:27:50.873Z,98819.81
2022-08-16T02:28:03.706Z,98821.56
2022-08-16T02:28:19.125Z,98827.56
2022-08-16T02:28:32.834Z,98823.16
2022-08-16T02:28:47.218Z,98825.63
2022-08-16T02:28:59.397Z,98820.34
2022-08-16T02:29:14.040Z,98821.34
2022-08-16T02:29:32.144Z,98830.91
2022-08-16T02:29:44.353Z,98824.69
2022-08-16T02:30:05.314Z,98827.31
2022-08-16T02:30:37.403Z,98825.91
2022-08-16T02:30:56.743Z,98821.56
2022-08-16T02:31:12.404Z,98823.38
2022-08-16T02:32:04.069Z,98822.56
2022-08-16T02:32:04.571Z,98822.56
2022-08-16T02:32:49.932Z,98824.72
2022-08-16T02:33:00.660Z,98829.56
2022-08-16T02:33:15.509Z,98821.88
2022-08-16T02:33:43.432Z,98824.69
2022-08-16T02:33:56.719Z,98813.28
2022-08-16T02:34:08.659Z,98822.16
2022-08-16T02:34:34.713Z,98826.56
2022-08-16T02:34:52.592Z,98820.75
2022-08-16T02:35:09.193Z,98819.06
2022-08-16T02:35:23.707Z,98827.94
2022-08-16T02:35:54.434Z,98820.75
2022-08-16T02:36:14.111Z,98822.66
2022-08-16T02:36:48.033Z,98820.75
2022-08-16T02:36:58.611Z,98824.31
2022-08-16T02:37:11.284Z,98822.41
2022-08-16T02:37:23.301Z,98823.22
2022-08-16T02:37:51.556Z,98821.28
2022-08-16T02:38:08.833Z,98826.56
2022-08-16T02:38:21.226Z,98820.75
2022-08-16T02:38:33.547Z,98820.97
2022-08-16T02:38:45.467Z,98821.69
2022-08-16T02:38:58.315Z,98819.16
2022-08-16T02:39:12.791Z,98821.56
2022-08-16T02:39:27.002Z,98814.25
2022-08-16T02:39:42.234Z,98825.50
2022-08-16T02:39:54.433Z,98822.03
2022-08-16T02:40:07.998Z,98818.53
2022-08-16T02:40:22.413Z,98820.22
2022-08-16T02:40:34.347Z,98818.53
2022-08-16T02:40:46.376Z,98823.81
2022-08-16T02:40:59.465Z,98821.19
2022-08-16T02:41:12.138Z,98818.53
2022-08-16T02:41:24.562Z,98823.81
2022-08-16T02:41:41.386Z,98822.41
2022-08-16T02:41:53.676Z,98825.31
2022-08-16T02:42:06.200Z,98824.59
2022-08-16T02:42:19.408Z,98828.16
2022-08-16T02:42:31.791Z,98817.91
2022-08-16T02:42:45.665Z,98826.53
2022-08-16T02:43:01.709Z,98821.97
2022-08-16T02:43:15.031Z,98822.66
2022-08-16T02:43:33.129Z,98820.84
2022-08-16T02:43:45.627Z,98824.81
2022-08-16T02:43:58.946Z,98823.41
2022-08-16T02:44:13.875Z,98827.25
2022-08-16T02:44:26.796Z,98820.31
2022-08-16T02:44:39.091Z,98819.34
2022-08-16T02:44:54.390Z,98822.25
2022-08-16T02:45:06.841Z,98827.53
2022-08-16T02:45:27.830Z,98825.13
2022-08-16T02:45:41.177Z,98824.41
2022-08-16T02:45:53.379Z,98831.34
2022-08-16T02:46:07.622Z,98823.59
2022-08-16T02:46:20.072Z,98825.25
2022-08-16T02:46:50.360Z,98822.72
2022-08-16T02:47:02.758Z,98813.88
2022-08-16T02:47:25.044Z,98824.19
2022-08-16T02:48:00.468Z,98817.09
2022-08-16T02:48:30.312Z,98815.88
2022-08-16T02:48:47.438Z,98811.22
2022-08-16T02:49:01.980Z,98817.19
2022-08-16T02:49:14.341Z,98811.06
2022-08-16T02:49:58.224Z,98813.84
2022-08-16T02:50:54.152Z,98815.06
2022-08-16T02:50:54.531Z,98811.72
2022-08-16T02:51:11.417Z,98814.19
2022-08-16T02:51:23.792Z,98813.13
2022-08-16T02:51:38.005Z,98807.88
2022-08-16T02:51:53.099Z,98809.53
2022-08-16T02:52:05.114Z,98809.53
2022-08-16T02:52:29.152Z,98805.09
2022-08-16T02:52:43.749Z,98805.94
2022-08-16T02:52:55.961Z,98816.47
2022-08-16T02:53:08.095Z,98815.50
2022-08-16T02:53:23.290Z,98809.53
2022-08-16T02:53:37.443Z,98809.53
2022-08-16T02:53:49.736Z,98808.56
2022-08-16T02:54:01.744Z,98804.25
2022-08-16T02:54:16.875Z,98806.78
2022-08-16T02:54:29.093Z,98807.00
2022-08-16T02:54:41.257Z,98808.56
2022-08-16T02:54:55.525Z,98804.97
2022-08-16T02:55:08.312Z,98806.78
2022-08-16T02:55:40.725Z,98807.88
2022-08-16T02:55:53.826Z,98804.25
2022-08-16T02:56:06.401Z,98804.25
2022-08-16T02:56:22.743Z,98807.59
2022-08-16T02:56:35.752Z,98807.88
2022-08-16T02:56:49.086Z,98806.19
2022-08-16T02:57:01.658Z,98808.09
2022-08-16T02:57:13.774Z,98810.75
2022-08-16T02:57:26.054Z,98810.03
2022-08-16T02:57:42.367Z,98806.44
2022-08-16T02:58:05.951Z,98811.44
2022-08-16T02:58:20.158Z,98810.34
2022-08-16T02:58:37.721Z,98812.88
2022-08-16T02:58:52.659Z,98812.75
2022-08-16T02:59:11.761Z,98809.84
2022-08-16T02:59:27.401Z,98814.06
2022-08-16T02:59:51.848Z,98812.38
2022-08-16T03:00:33.548Z,98806.25
2022-08-16T03:00:45.624Z,98813.34
2022-08-16T03:01:02.400Z,98815.97
2022-08-16T03:01:25.389Z,98813.34
2022-08-16T03:01:49.702Z,98808.78
2022-08-16T03:02:01.784Z,98810.72
2022-08-16T03:02:20.872Z,98811.78
2022-08-16T03:02:45.242Z,98808.31
2022-08-16T03:02:57.622Z,98807.38
2022-08-16T03:03:11.238Z,98812.88
2022-08-16T03:04:28.909Z,98813.97
2022-08-16T03:04:41.351Z,98809.63
2022-08-16T03:04:50.601Z,98802.31
2022-08-16T03:05:05.349Z,98804.84
2022-08-16T03:05:17.320Z,98801.50
2022-08-16T03:05:31.045Z,98803.31
2022-08-16T03:05:43.808Z,98807.59
2022-08-16T03:06:01.914Z,98804.00
2022-08-16T03:06:36.389Z,98800.41
2022-08-16T03:06:46.376Z,98802.09
2022-08-16T03:06:58.375Z,98804.72
2022-08-16T03:07:11.501Z,98797.66
2022-08-16T03:07:27.632Z,98793.47
2022-08-16T03:07:40.820Z,98798.75
2022-08-16T03:08:03.098Z,98797.31
2022-08-16T03:08:52.208Z,98796.84
2022-08-16T03:08:52.677Z,98794.81
2022-08-16T03:09:05.416Z,98796.47
2022-08-16T03:09:18.023Z,98796.34
2022-08-16T03:09:33.255Z,98788.31
2022-08-16T03:09:45.883Z,98789.88
2022-08-16T03:10:00.725Z,98793.47
2022-08-16T03:10:14.016Z,98793.47
2022-08-16T03:10:33.227Z,98789.16
2022-08-16T03:10:48.498Z,98797.78
2022-08-16T03:11:00.759Z,98798.59
2022-08-16T03:11:17.875Z,98792.38
2022-08-16T03:11:35.377Z,98791.56
2022-08-16T03:11:47.634Z,98796.81
2022-08-16T03:12:00.989Z,98790.56
2022-08-16T03:12:16.284Z,98802.91
2022-08-16T03:12:30.372Z,98793.91
2022-08-16T03:12:56.365Z,98798.25
2022-08-16T03:13:12.551Z,98793.69
2022-08-16T03:13:24.882Z,98787.44
2022-08-16T03:13:40.347Z,98790.19
2022-08-16T03:13:56.588Z,98785.78
2022-08-16T03:14:08.942Z,98792.81
2022-08-16T03:14:24.797Z,98792.81
2022-08-16T03:14:37.063Z,98793.91
2022-08-16T03:14:50.231Z,98786.00
2022-08-16T03:15:02.183Z,98790.69
2022-08-16T03:15:14.461Z,98789.88
2022-08-16T03:15:30.100Z,98786.53
2022-08-16T03:15:42.255Z,98789.28
2022-08-16T03:15:54.850Z,98787.63
2022-08-16T03:16:07.650Z,98788.22
2022-08-16T03:16:58.873Z,98787.22
2022-08-16T03:17:12.131Z,98787.34
2022-08-16T03:17:24.126Z,98793.47
2022-08-16T03:17:53.350Z,98788.66
2022-08-16T03:18:12.446Z,98789.63
2022-08-16T03:18:40.352Z,98788.91
2022-08-16T03:18:53.496Z,98787.34
2022-08-16T03:19:06.755Z,98788.22
2022-08-16T03:19:19.743Z,98789.03
2022-08-16T03:19:46.848Z,98789.97
2022-08-16T03:20:02.826Z,98783.75
2022-08-16T03:20:16.277Z,98787.34
2022-08-16T03:20:32.278Z,98782.94
2022-08-16T03:20:46.501Z,98790.69
2022-08-16T03:21:10.142Z,98788.91
2022-08-16T03:21:25.356Z,98790.69
2022-08-16T03:21:38.732Z,98788.22
2022-08-16T03:21:51.893Z,98796.81
2022-08-16T03:22:04.093Z,98794.91
2022-08-16T03:22:19.403Z,98789.63
2022-08-16T03:22:40.149Z,98793.31
2022-08-16T03:22:57.352Z,98791.66
2022-08-16T03:23:10.374Z,98793.47
2022-08-16T03:23:27.213Z,98792.28
2022-08-16T03:23:48.246Z,98795.91
2022-08-16T03:24:00.238Z,98800.47
2022-08-16T03:24:28.550Z,98795.31
2022-08-16T03:24:41.676Z,98793.03
2022-08-16T03:25:00.906Z,98795.09
2022-08-16T03:25:15.532Z,98798.69
2022-08-16T03:25:43.931Z,98798.56
2022-08-16T03:25:56.394Z,98799.41
2022-08-16T03:26:09.310Z,98794.97
2022-08-16T03:26:21.330Z,98797.59
2022-08-16T03:26:36.463Z,98799.28
2022-08-16T03:26:48.537Z,98791.50
2022-08-16T03:27:03.803Z,98799.41
2022-08-16T03:27:19.051Z,98801.09
2022-08-16T03:27:32.907Z,98793.31
2022-08-16T03:27:45.326Z,98795.81
2022-08-16T03:27:59.885Z,98796.66
2022-08-16T03:28:11.990Z,98797.47
2022-08-16T03:28:25.189Z,98796.66
2022-08-16T03:28:37.652Z,98795.56
2022-08-16T03:28:50.196Z,98798.06